Time;durP1;ratioP1;P1;durP2;ratioP2;P2;SDS_P1;SDS_P2;PMS_P1;PMS_P2;Temp;Humidity;BMP_temperature;BMP_pressure;BME280_temperature;BME280_humidity;BME280_pressure;Samples;Min_cycle;Max_cycle;Signal;HPM_P1;HPM_P2
2023/04/12 00:01:51;;;;;;;3.00;1.13;;;6.20;99.90;;;;;;5006538;28;20065;-76
2023/04/12 00:04:17;;;;;;;4.60;1.40;;;6.00;99.90;;;;;;5006784;28;20039;-76
2023/04/12 00:06:47;;;;;;;3.40;1.50;;;5.90;99.90;;;;;;5006779;28;20390;-76
2023/04/12 00:09:14;;;;;;;2.65;1.20;;;5.90;99.90;;;;;;5005891;28;20037;-76
2023/04/12 00:11:40;;;;;;;2.65;1.10;;;5.80;99.90;;;;;;5006431;28;20455;-76
2023/04/12 00:14:06;;;;;;;4.60;1.50;;;5.80;99.90;;;;;;5005767;28;20065;-76
2023/04/12 00:16:32;;;;;;;2.15;1.40;;;5.80;99.90;;;;;;5005278;28;20026;-76
2023/04/12 00:19:00;;;;;;;4.38;1.63;;;5.80;99.90;;;;;;5006608;28;20030;-76
2023/04/12 00:21:27;;;;;;;2.50;1.30;;;5.70;99.90;;;;;;5005066;28;20046;-76
2023/04/12 00:23:53;;;;;;;4.97;1.30;;;5.70;99.90;;;;;;5006591;28;20085;-76
2023/04/12 00:26:20;;;;;;;3.03;1.27;;;5.60;99.90;;;;;;5006387;28;20026;-76
2023/04/12 00:28:46;;;;;;;2.97;1.50;;;5.60;99.90;;;;;;5004624;28;20061;-76
2023/04/12 00:31:12;;;;;;;3.10;1.30;;;5.50;99.90;;;;;;5005437;28;20022;-77
2023/04/12 00:33:38;;;;;;;1.35;1.10;;;5.50;99.90;;;;;;5006062;28;20121;-76
2023/04/12 00:36:04;;;;;;;3.03;1.40;;;5.50;99.90;;;;;;5007405;28;20050;-76
2023/04/12 00:38:30;;;;;;;1.52;1.23;;;5.50;99.90;;;;;;5005784;28;20030;-76
2023/04/12 00:40:55;;;;;;;4.22;1.48;;;5.50;99.90;;;;;;5005924;28;20037;-76
2023/04/12 00:43:22;;;;;;;1.67;1.48;;;5.40;99.90;;;;;;5006544;28;20022;-76
2023/04/12 00:45:48;;;;;;;1.98;1.30;;;5.40;99.90;;;;;;5005089;28;20034;-76
2023/04/12 00:48:15;;;;;;;2.25;1.40;;;5.40;99.90;;;;;;5005999;28;20042;-76
2023/04/12 00:50:43;;;;;;;2.92;1.58;;;5.40;99.90;;;;;;5005272;28;20498;-77
2023/04/12 00:53:12;;;;;;;3.95;0.98;;;5.30;99.90;;;;;;5004368;28;20038;-76
2023/04/12 00:55:43;;;;;;;3.10;1.20;;;5.30;99.90;;;;;;5006267;28;20061;-76
2023/04/12 00:58:09;;;;;;;4.82;2.17;;;5.30;99.90;;;;;;5006155;28;20050;-76
2023/04/12 01:00:35;;;;;;;5.10;1.52;;;5.20;99.90;;;;;;5004930;28;20037;-76
2023/04/12 01:03:02;;;;;;;3.75;1.70;;;5.20;99.90;;;;;;5006275;28;20509;-76
2023/04/12 01:05:29;;;;;;;2.10;1.38;;;5.10;99.90;;;;;;5005984;28;20026;-76
2023/04/12 01:08:06;;;;;;;2.80;1.48;;;5.10;99.90;;;;;;5005445;28;20064;-76
2023/04/12 01:10:37;;;;;;;2.78;1.75;;;5.00;99.90;;;;;;5005084;28;20030;-76
2023/04/12 01:13:31;;;;;;;6.60;2.10;;;4.90;99.90;;;;;;5004429;28;20076;-76
2023/04/12 01:16:26;;;;;;;2.45;1.73;;;4.90;99.90;;;;;;5004785;28;20057;-76
2023/04/12 01:18:58;;;;;;;3.08;1.33;;;4.80;99.90;;;;;;5004361;28;20038;-76
2023/04/12 01:21:43;;;;;;;2.85;2.30;;;4.80;99.90;;;;;;5003380;28;20050;-76
2023/04/12 01:24:35;;;;;;;2.58;1.60;;;4.70;99.90;;;;;;5005607;28;20051;-76
2023/04/12 01:27:02;;;;;;;2.55;1.30;;;4.60;99.90;;;;;;5001597;28;20459;-76
2023/04/12 01:29:29;;;;;;;2.80;1.15;;;4.50;99.90;;;;;;5001794;28;20045;-76
2023/04/12 01:32:05;;;;;;;3.03;1.45;;;4.40;99.90;;;;;;4999947;28;20037;-76
2023/04/12 01:34:34;;;;;;;1.80;1.15;;;4.30;99.90;;;;;;4999427;28;20097;-76
2023/04/12 01:37:01;;;;;;;1.80;1.33;;;4.20;99.90;;;;;;4997581;28;20064;-76
2023/04/12 01:39:29;;;;;;;3.30;1.45;;;4.10;99.90;;;;;;4996268;28;20053;-76
2023/04/12 01:41:56;;;;;;;2.50;1.50;;;3.90;99.90;;;;;;4995135;28;20030;-76
2023/04/12 01:44:21;;;;;;;3.83;1.60;;;3.90;99.90;;;;;;4997474;28;20026;-76
2023/04/12 01:46:47;;;;;;;3.20;1.55;;;3.80;99.90;;;;;;4996053;28;20026;-76
2023/04/12 01:49:15;;;;;;;3.17;1.42;;;3.90;99.90;;;;;;4996675;28;20037;-76
2023/04/12 01:51:59;;;;;;;3.33;1.33;;;3.70;99.90;;;;;;4995351;28;20073;-76
2023/04/12 01:54:32;;;;;;;2.33;1.65;;;3.70;99.90;;;;;;4996606;28;20367;-76
2023/04/12 01:57:00;;;;;;;1.13;1.13;;;3.60;99.90;;;;;;4996729;28;20041;-76
2023/04/12 01:59:30;;;;;;;3.20;1.48;;;3.50;99.90;;;;;;4996624;28;20030;-76
2023/04/12 02:01:56;;;;;;;4.90;1.58;;;3.40;99.90;;;;;;4996585;28;20042;-76
2023/04/12 02:04:25;;;;;;;2.67;1.45;;;4.60;99.90;;;;;;4996171;28;20026;-76
2023/04/12 02:06:51;;;;;;;2.70;1.40;;;3.40;99.90;;;;;;4994971;28;20034;-76
2023/04/12 02:09:16;;;;;;;2.63;1.55;;;3.40;99.90;;;;;;4996559;28;20293;-76
2023/04/12 02:11:47;;;;;;;3.22;1.77;;;3.30;99.90;;;;;;4995511;28;20112;-76
2023/04/12 02:14:13;;;;;;;2.65;1.40;;;3.30;99.90;;;;;;4996619;28;20110;-76
2023/04/12 02:16:41;;;;;;;5.25;2.00;;;3.60;99.90;;;;;;4995058;28;20066;-76
2023/04/12 02:19:07;;;;;;;5.43;1.60;;;4.70;99.90;;;;;;4994395;28;20037;-75
2023/04/12 02:21:43;;;;;;;3.00;1.55;;;3.20;99.90;;;;;;4993968;28;20047;-75
2023/04/12 02:24:10;;;;;;;4.20;1.40;;;3.20;99.90;;;;;;4995119;28;20022;-75
2023/04/12 02:26:36;;;;;;;3.72;1.52;;;3.10;99.90;;;;;;4995018;28;20065;-75
2023/04/12 02:29:02;;;;;;;3.67;1.98;;;3.10;99.90;;;;;;4995049;28;20026;-75
2023/04/12 02:31:29;;;;;;;3.90;1.48;;;3.00;99.90;;;;;;4994670;28;20455;-75
2023/04/12 02:33:55;;;;;;;1.70;1.42;;;3.00;99.90;;;;;;4995132;28;20027;-75
2023/04/12 02:36:21;;;;;;;3.15;1.52;;;2.90;99.90;;;;;;4994990;28;20533;-75
2023/04/12 02:38:49;;;;;;;3.63;1.98;;;2.80;99.90;;;;;;4993792;28;20034;-75
2023/04/12 02:41:19;;;;;;;3.45;1.80;;;5.10;99.90;;;;;;4994071;28;20038;-75
2023/04/12 02:43:45;;;;;;;3.00;1.77;;;2.80;99.90;;;;;;4994921;28;20034;-75
2023/04/12 02:46:21;;;;;;;4.35;2.30;;;2.80;99.90;;;;;;4993396;28;20034;-75
2023/04/12 02:48:47;;;;;;;3.63;1.88;;;2.80;99.90;;;;;;4994962;28;20027;-75
2023/04/12 02:51:13;;;;;;;3.15;1.95;;;2.80;99.90;;;;;;4994802;28;20034;-75
2023/04/12 02:53:39;;;;;;;4.85;2.33;;;2.90;99.90;;;;;;4996885;28;20371;-75
2023/04/12 02:56:05;;;;;;;5.22;2.38;;;3.10;99.90;;;;;;4998182;28;20038;-75
2023/04/12 02:58:32;;;;;;;2.88;2.20;;;3.00;99.90;;;;;;4998369;28;20040;-75
2023/04/12 03:00:59;;;;;;;4.38;2.42;;;3.00;99.90;;;;;;4996946;28;20042;-75
2023/04/12 03:03:27;;;;;;;4.90;2.20;;;3.00;99.90;;;;;;4998368;28;20026;-75
2023/04/12 03:05:53;;;;;;;3.67;1.95;;;3.00;99.90;;;;;;4997782;28;20065;-75
2023/04/12 03:08:20;;;;;;;2.45;1.70;;;3.10;99.90;;;;;;4996344;28;20117;-75
2023/04/12 03:10:46;;;;;;;2.97;1.58;;;2.90;99.90;;;;;;4996274;28;20026;-75
2023/04/12 03:13:12;;;;;;;3.75;1.90;;;2.90;99.90;;;;;;4996319;28;20085;-75
2023/04/12 03:15:38;;;;;;;4.93;2.20;;;2.90;99.90;;;;;;4997451;28;20026;-75
2023/04/12 03:18:04;;;;;;;2.08;1.88;;;2.90;99.90;;;;;;4997421;28;20038;-75
2023/04/12 03:20:29;;;;;;;3.70;2.30;;;2.80;99.90;;;;;;4997571;28;20027;-75
2023/04/12 03:22:55;;;;;;;5.10;2.05;;;2.80;99.90;;;;;;4996062;28;20077;-75
2023/04/12 03:25:21;;;;;;;4.05;2.33;;;3.00;99.90;;;;;;5000705;28;20023;-75
2023/04/12 03:27:47;;;;;;;4.05;2.22;;;2.70;99.90;;;;;;4999993;28;20026;-76
2023/04/12 03:30:13;;;;;;;6.85;2.10;;;2.70;99.90;;;;;;4998715;28;20448;-75
2023/04/12 03:32:39;;;;;;;7.80;2.35;;;2.60;99.90;;;;;;4998612;28;20089;-75
2023/04/12 03:35:06;;;;;;;5.03;2.22;;;2.60;99.90;;;;;;4999354;28;20027;-76
2023/04/12 03:37:32;;;;;;;7.13;2.35;;;2.50;99.90;;;;;;4997677;28;20022;-76
2023/04/12 03:39:58;;;;;;;3.35;2.00;;;2.50;99.90;;;;;;4997510;28;20034;-75
2023/04/12 03:42:25;;;;;;;3.53;1.90;;;2.50;99.90;;;;;;4998174;28;20101;-75
2023/04/12 03:44:51;;;;;;;4.53;2.38;;;2.50;99.90;;;;;;4997264;28;20027;-75
2023/04/12 03:47:17;;;;;;;4.72;1.80;;;2.40;99.90;;;;;;4996937;28;20387;-75
2023/04/12 03:49:43;;;;;;;5.07;2.47;;;;;;;;;;4997791;28;20030;-75
2023/04/12 03:52:09;;;;;;;4.60;2.28;;;2.40;99.90;;;;;;4997685;28;20540;-75
2023/04/12 03:54:36;;;;;;;6.65;2.92;;;2.40;99.90;;;;;;4998004;28;20109;-76
2023/04/12 03:57:01;;;;;;;5.22;2.30;;;2.40;99.90;;;;;;4996921;28;20064;-75
2023/04/12 03:59:31;;;;;;;10.02;2.67;;;2.40;99.90;;;;;;4997122;28;20026;-75
2023/04/12 04:01:58;;;;;;;2.80;2.15;;;2.30;99.90;;;;;;4997288;28;20054;-75
2023/04/12 04:04:24;;;;;;;4.30;2.53;;;2.40;99.90;;;;;;4995791;28;20025;-75
2023/04/12 04:06:51;;;;;;;4.90;2.67;;;2.30;99.90;;;;;;4996685;28;20046;-76
2023/04/12 04:09:16;;;;;;;5.53;2.30;;;2.30;99.90;;;;;;4996747;28;20026;-76
2023/04/12 04:11:42;;;;;;;8.15;2.90;;;2.30;99.90;;;;;;4997243;28;20057;-76
2023/04/12 04:14:08;;;;;;;5.82;2.95;;;3.50;99.90;;;;;;4995897;28;20065;-74
2023/04/12 04:16:33;;;;;;;7.03;2.75;;;2.40;99.90;;;;;;4996067;28;20026;-75
2023/04/12 04:18:59;;;;;;;10.98;2.90;;;2.30;99.90;;;;;;4996465;28;20023;-75
2023/04/12 04:21:25;;;;;;;11.35;2.97;;;2.30;99.90;;;;;;4995060;28;20081;-75
2023/04/12 04:23:51;;;;;;;6.70;2.95;;;3.50;99.90;;;;;;4995007;28;20130;-74
2023/04/12 04:26:17;;;;;;;5.90;3.35;;;2.30;99.90;;;;;;4996229;28;20455;-76
2023/04/12 04:28:45;;;;;;;6.60;3.30;;;2.20;99.90;;;;;;4996225;28;20026;-75
2023/04/12 04:31:12;;;;;;;7.50;3.67;;;2.20;99.90;;;;;;4994939;28;20474;-75
2023/04/12 04:33:38;;;;;;;7.00;3.35;;;2.20;99.90;;;;;;4995361;28;20383;-74
2023/04/12 04:36:06;;;;;;;5.38;3.15;;;2.20;99.90;;;;;;4996149;28;20030;-74
2023/04/12 04:38:32;;;;;;;6.38;3.50;;;2.20;99.90;;;;;;4996205;28;20085;-82
2023/04/12 04:41:01;;;;;;;6.82;3.13;;;2.20;99.90;;;;;;4999940;28;20120;-80
2023/04/12 04:43:32;;;;;;;10.20;4.05;;;2.20;99.90;;;;;;5016149;28;20014;-85
2023/04/12 04:48:35;;;;;;;7.05;3.10;;;;;;;;;;5460216;23;20062;-87
2023/04/12 04:51:01;;;;;;;8.32;3.17;;;;;;;;;;4995856;28;20030;-82
2023/04/12 04:53:27;;;;;;;4.88;3.90;;;;;;;;;;4986302;28;20081;-80
2023/04/12 04:56:00;;;;;;;7.28;3.15;;;2.30;99.90;;;;;;4988840;28;20030;-83
2023/04/12 04:58:26;;;;;;;9.07;3.50;;;2.30;99.90;;;;;;4991371;28;20034;-86
2023/04/12 05:00:56;;;;;;;7.68;4.28;;;4.90;99.90;;;;;;5013613;28;20077;-84
2023/04/12 05:03:22;;;;;;;8.65;3.28;;;2.40;99.90;;;;;;5004565;28;20022;-84
2023/04/12 05:05:48;;;;;;;11.32;3.75;;;2.40;99.90;;;;;;4983381;28;20037;-82
2023/04/12 05:08:14;;;;;;;11.25;4.05;;;2.50;99.90;;;;;;4996474;28;20470;-81
2023/04/12 05:10:41;;;;;;;7.30;4.07;;;3.40;99.90;;;;;;4978802;28;20080;-81
2023/04/12 05:13:08;;;;;;;6.70;4.25;;;5.30;99.90;;;;;;4981373;28;20057;-84
2023/04/12 05:15:34;;;;;;;8.15;4.40;;;2.70;99.90;;;;;;4989955;28;20088;-84
2023/04/12 05:18:00;;;;;;;6.22;3.67;;;2.70;99.90;;;;;;4983757;28;20031;-83
2023/04/12 05:20:26;;;;;;;7.88;3.30;;;2.80;99.90;;;;;;4980174;28;20489;-82
2023/04/12 05:22:52;;;;;;;9.38;3.83;;;3.00;99.90;;;;;;4982387;28;20030;-83
2023/04/12 05:25:19;;;;;;;5.55;3.40;;;2.80;99.90;;;;;;4980212;28;20023;-82
2023/04/12 05:27:45;;;;;;;9.00;3.80;;;2.90;99.90;;;;;;4983602;28;20026;-83
2023/04/12 05:30:11;;;;;;;6.18;3.53;;;3.00;99.90;;;;;;5003271;28;20037;-84
2023/04/12 05:32:37;;;;;;;5.35;3.90;;;3.10;99.90;;;;;;4993546;28;20018;-84
2023/04/12 05:35:03;;;;;;;8.60;2.53;;;3.20;99.90;;;;;;4994651;28;20026;-83
2023/04/12 05:37:34;;;;;;;5.82;3.33;;;;;;;;;;5079663;23;20061;-82
2023/04/12 05:40:00;;;;;;;7.65;3.20;;;;;;;;;;5004081;28;20018;-83
2023/04/12 05:42:27;;;;;;;9.07;3.30;;;;;;;;;;4999580;28;20031;-82
2023/04/12 05:44:54;;;;;;;9.13;3.13;;;3.60;99.90;;;;;;4998854;28;20023;-82
2023/04/12 05:47:20;;;;;;;7.72;2.65;;;3.80;99.90;;;;;;4996859;28;20096;-82
2023/04/12 05:49:46;;;;;;;7.90;2.42;;;3.90;99.90;;;;;;4996709;28;20026;-82
2023/04/12 05:52:11;;;;;;;4.50;2.55;;;4.20;99.90;;;;;;4998186;28;20044;-82
2023/04/12 05:54:37;;;;;;;13.43;3.17;;;4.50;99.90;;;;;;4995357;28;20470;-82
2023/04/12 05:57:03;;;;;;;6.55;2.40;;;5.00;99.90;;;;;;4996213;28;20022;-83
2023/04/12 05:59:28;;;;;;;6.57;2.10;;;5.60;99.90;;;;;;4996689;28;20109;-82
2023/04/12 06:01:54;;;;;;;9.60;3.20;;;5.60;99.90;;;;;;5004873;28;20031;-82
2023/04/12 06:04:20;;;;;;;4.63;2.40;;;6.10;99.90;;;;;;5006290;28;20034;-82
2023/04/12 06:06:46;;;;;;;3.88;1.90;;;6.60;99.90;;;;;;5002351;28;20037;-83
2023/04/12 06:09:13;;;;;;;5.50;1.92;;;7.10;99.90;;;;;;4995235;28;20072;-83
2023/04/12 06:11:39;;;;;;;3.55;1.88;;;7.60;99.90;;;;;;4994283;28;20414;-83
2023/04/12 06:14:05;;;;;;;6.55;2.42;;;8.00;99.90;;;;;;4994389;28;20030;-83
2023/04/12 06:16:31;;;;;;;9.88;2.10;;;8.50;99.90;;;;;;4994595;28;20026;-84
2023/04/12 06:18:56;;;;;;;6.35;1.38;;;8.80;99.90;;;;;;4992204;28;20073;-85
2023/04/12 06:21:23;;;;;;;2.03;1.40;;;9.20;99.90;;;;;;4994555;28;20481;-87
2023/04/12 06:23:49;;;;;;;6.15;2.42;;;9.60;99.90;;;;;;4994151;28;20061;-87
2023/04/12 06:26:14;;;;;;;8.10;1.60;;;9.80;99.90;;;;;;4993808;28;20026;-88
2023/04/12 06:28:40;;;;;;;2.65;1.05;;;10.10;99.90;;;;;;4997164;28;20036;-88
2023/04/12 06:31:06;;;;;;;6.57;1.20;;;10.60;99.90;;;;;;4997614;28;20034;-87
2023/04/12 06:33:31;;;;;;;2.80;0.90;;;11.10;99.90;;;;;;4998503;28;20137;-87
2023/04/12 06:35:57;;;;;;;4.75;1.25;;;11.50;99.90;;;;;;4998590;28;20459;-87
2023/04/12 06:38:23;;;;;;;6.40;1.10;;;11.90;99.90;;;;;;4998706;28;20028;-87
2023/04/12 06:40:49;;;;;;;1.83;0.60;;;12.10;99.90;;;;;;4984435;28;20038;-86
2023/04/12 06:43:21;;;;;;;5.25;0.88;;;12.30;99.40;;;;;;4985023;28;20457;-85
2023/04/12 06:45:48;;;;;;;2.50;0.65;;;12.70;94.20;;;;;;4983553;28;20023;-86
2023/04/12 06:48:14;;;;;;;1.67;0.80;;;12.70;94.00;;;;;;4981502;28;20022;-86
2023/04/12 06:50:40;;;;;;;7.47;0.93;;;12.50;92.50;;;;;;4998041;28;20027;-85
2023/04/12 06:53:06;;;;;;;3.55;1.17;;;12.40;92.70;;;;;;4997473;28;20031;-85
2023/04/12 06:55:32;;;;;;;5.18;0.93;;;12.50;91.40;;;;;;4997762;28;20471;-85
2023/04/12 06:57:57;;;;;;;11.02;1.27;;;12.60;90.70;;;;;;4980250;28;20382;-85
2023/04/12 07:00:23;;;;;;;1.95;0.70;;;12.90;90.00;;;;;;4997545;28;20033;-85
2023/04/12 07:02:49;;;;;;;1.25;0.63;;;13.10;85.90;;;;;;4980023;28;20050;-84
2023/04/12 07:05:15;;;;;;;3.00;0.45;;;13.30;81.00;;;;;;4980166;28;20034;-84
2023/04/12 07:07:40;;;;;;;2.05;0.47;;;13.30;77.80;;;;;;4997392;28;20489;-84
2023/04/12 07:10:06;;;;;;;7.55;0.82;;;13.30;74.30;;;;;;4997365;28;20026;-83
2023/04/12 07:12:33;;;;;;;4.43;0.40;;;12.30;73.80;;;;;;4979587;28;20085;-84
2023/04/12 07:14:58;;;;;;;5.35;0.60;;;13.40;72.80;;;;;;4997144;28;20100;-84
2023/04/12 07:17:25;;;;;;;4.68;0.90;;;13.90;72.20;;;;;;4979539;28;20022;-83
2023/04/12 07:19:55;;;;;;;3.92;0.50;;;14.40;70.20;;;;;;4979737;28;20034;-84
2023/04/12 07:22:21;;;;;;;1.50;0.57;;;14.60;66.70;;;;;;4979583;28;20121;-83
2023/04/12 07:24:48;;;;;;;1.13;0.40;;;14.70;65.20;;;;;;4979289;28;20042;-83
2023/04/12 07:27:14;;;;;;;1.23;0.40;;;14.70;66.00;;;;;;4979232;28;20031;-83
2023/04/12 07:29:40;;;;;;;3.05;0.50;;;14.80;63.30;;;;;;4979370;28;20434;-83
2023/04/12 07:32:06;;;;;;;2.15;0.85;;;14.80;62.60;;;;;;4996769;28;20026;-83
2023/04/12 07:34:32;;;;;;;2.63;0.30;;;14.80;59.60;;;;;;4979315;28;20073;-84
2023/04/12 07:36:59;;;;;;;4.38;0.98;;;14.60;60.40;;;;;;4986038;28;20080;-83
2023/04/12 07:39:25;;;;;;;5.70;0.70;;;14.70;60.20;;;;;;4995414;28;20073;-83
2023/04/12 07:41:51;;;;;;;4.88;0.63;;;14.90;59.90;;;;;;4995560;28;20034;-82
2023/04/12 07:44:17;;;;;;;1.38;0.60;;;15.00;58.50;;;;;;4999023;28;20042;-84
2023/04/12 07:46:43;;;;;;;5.65;0.60;;;15.20;57.80;;;;;;4998325;28;20032;-86
2023/04/12 07:49:09;;;;;;;2.88;1.05;;;15.60;56.40;;;;;;4996972;28;20026;-83
2023/04/12 07:51:35;;;;;;;3.22;0.75;;;15.90;55.80;;;;;;4996870;28;20394;-86
2023/04/12 07:54:01;;;;;;;2.58;0.40;;;16.20;55.60;;;;;;4996252;28;20076;-81
2023/04/12 07:56:27;;;;;;;2.15;0.50;;;16.00;54.30;;;;;;4994900;28;20023;-81
2023/04/12 07:58:53;;;;;;;1.00;0.40;;;15.80;53.70;;;;;;4995002;28;20026;-85
2023/04/12 08:01:18;;;;;;;2.72;0.60;;;15.50;54.60;;;;;;4995571;28;20095;-81
2023/04/12 08:03:44;;;;;;;1.55;0.43;;;15.40;55.00;;;;;;4995384;28;20093;-83
2023/04/12 08:06:10;;;;;;;1.75;0.43;;;15.60;53.10;;;;;;4996397;28;20061;-84
2023/04/12 08:08:36;;;;;;;3.72;0.65;;;15.50;52.50;;;;;;4996205;28;20065;-84
2023/04/12 08:11:03;;;;;;;3.72;0.82;;;15.80;53.10;;;;;;4994926;28;20030;-84
2023/04/12 08:13:29;;;;;;;3.25;0.77;;;16.30;52.20;;;;;;4995030;28;20046;-84
2023/04/12 08:15:55;;;;;;;2.03;0.70;;;16.70;51.40;;;;;;4995001;28;20076;-85
2023/04/12 08:18:20;;;;;;;3.20;0.55;;;17.10;50.80;;;;;;4995142;28;20481;-84
2023/04/12 08:20:48;;;;;;;1.45;0.32;;;17.30;48.70;;;;;;4995321;28;20023;-85
2023/04/12 08:23:14;;;;;;;6.10;0.70;;;17.60;48.00;;;;;;4978862;28;20125;-83
2023/04/12 08:25:40;;;;;;;1.45;0.52;;;17.60;48.70;;;;;;4995211;28;20022;-84
2023/04/12 08:28:07;;;;;;;2.00;0.70;;;17.60;48.80;;;;;;4994569;28;20443;-84
2023/04/12 08:30:33;;;;;;;3.72;0.63;;;17.40;48.60;;;;;;4994947;28;20034;-85
2023/04/12 08:32:59;;;;;;;1.92;0.40;;;17.70;48.00;;;;;;4996392;28;20036;-85
2023/04/12 08:35:24;;;;;;;3.95;0.70;;;19.60;47.50;;;;;;4995989;28;20351;-85
2023/04/12 08:37:51;;;;;;;4.07;0.93;;;18.20;46.20;;;;;;4994485;28;20430;-85
2023/04/12 08:40:17;;;;;;;6.53;0.65;;;18.30;45.20;;;;;;4994677;28;20045;-84
2023/04/12 08:42:43;;;;;;;4.07;0.70;;;18.00;45.50;;;;;;4995007;28;20031;-85
2023/04/12 08:45:13;;;;;;;1.95;0.80;;;18.50;46.30;;;;;;4995152;28;20435;-85
2023/04/12 08:47:41;;;;;;;2.05;0.65;;;17.80;46.30;;;;;;4994863;28;20022;-84
2023/04/12 08:50:08;;;;;;;1.17;0.45;;;18.00;46.30;;;;;;4995139;28;20027;-84
2023/04/12 08:52:35;;;;;;;1.85;0.60;;;18.00;46.30;;;;;;4995807;28;20084;-84
2023/04/12 08:55:07;;;;;;;6.40;1.08;;;17.50;46.70;;;;;;4995798;28;20038;-84
2023/04/12 08:57:35;;;;;;;1.95;0.63;;;17.00;47.70;;;;;;4996353;28;20022;-85
2023/04/12 09:00:02;;;;;;;6.47;1.20;;;16.90;48.60;;;;;;4997322;28;20045;-84
2023/04/12 09:02:29;;;;;;;2.33;0.90;;;16.60;49.30;;;;;;4997624;28;20124;-82
2023/04/12 09:04:55;;;;;;;2.55;1.00;;;15.90;48.80;;;;;;4978385;28;20177;-82
2023/04/12 09:07:29;;;;;;;3.38;1.15;;;15.00;50.30;;;;;;4995125;28;20474;-82
2023/04/12 09:09:56;;;;;;;6.60;1.00;;;15.10;51.80;;;;;;4994628;28;20026;-82
2023/04/12 09:12:23;;;;;;;4.03;1.38;;;15.30;51.20;;;;;;4993950;28;20030;-82
2023/04/12 09:15:03;;;;;;;3.95;1.60;;;15.20;51.70;;;;;;4993730;28;20489;-82
2023/04/12 09:17:30;;;;;;;2.75;0.80;;;15.80;52.00;;;;;;4994081;28;20463;-83
2023/04/12 09:19:56;;;;;;;3.50;0.90;;;15.10;50.20;;;;;;4995072;28;20018;-82
2023/04/12 09:22:38;;;;;;;3.72;0.80;;;16.70;50.00;;;;;;4995077;28;20037;-82
2023/04/12 09:25:05;;;;;;;8.02;1.20;;;17.10;49.20;;;;;;4993982;28;20022;-83
2023/04/12 09:27:45;;;;;;;5.15;1.73;;;17.30;49.00;;;;;;4994786;28;20513;-83
2023/04/12 09:30:11;;;;;;;1.70;0.93;;;17.70;48.50;;;;;;4993747;28;20458;-84
2023/04/12 09:32:37;;;;;;;2.40;1.05;;;17.60;47.70;;;;;;4994003;28;20140;-85
2023/04/12 09:35:04;;;;;;;2.30;1.08;;;17.10;47.20;;;;;;4995091;28;20053;-82
2023/04/12 09:37:30;;;;;;;2.63;1.27;;;17.20;47.90;;;;;;4993293;28;20046;-83
2023/04/12 09:40:04;;;;;;;3.85;1.10;;;17.10;47.90;;;;;;4994242;28;20478;-83
2023/04/12 09:42:32;;;;;;;2.65;1.27;;;16.60;48.30;;;;;;4994341;28;20121;-83
2023/04/12 09:44:58;;;;;;;6.18;1.38;;;16.40;48.30;;;;;;4994848;28;20382;-83
2023/04/12 09:47:39;;;;;;;5.40;1.45;;;16.40;48.20;;;;;;4994631;28;20029;-83
2023/04/12 09:50:08;;;;;;;2.22;1.52;;;16.40;48.50;;;;;;4994973;28;20030;-82
2023/04/12 09:52:38;;;;;;;4.72;1.30;;;16.30;48.30;;;;;;4993915;28;20030;-83
2023/04/12 09:58:17;;;;;;;3.70;1.20;;;15.00;49.60;;;;;;5505281;23;20031;31
2023/04/12 10:00:44;;;;;;;4.45;1.67;;;15.00;50.40;;;;;;4917696;29;20051;-83
2023/04/12 10:03:11;;;;;;;5.95;1.52;;;15.10;50.90;;;;;;4922256;29;20130;-83
2023/04/12 10:05:37;;;;;;;6.18;1.70;;;15.10;51.30;;;;;;4940189;29;20038;-82
2023/04/12 10:08:04;;;;;;;3.15;1.02;;;15.20;51.50;;;;;;4923810;29;20455;-82
2023/04/12 10:10:30;;;;;;;4.65;1.10;;;14.70;50.30;;;;;;4940760;29;20488;-83
2023/04/12 10:12:57;;;;;;;7.07;1.58;;;14.80;52.10;;;;;;4923282;29;20067;-83
2023/04/12 10:15:24;;;;;;;2.67;1.05;;;15.00;52.10;;;;;;4923685;29;20448;-83
2023/04/12 10:17:53;;;;;;;3.80;1.30;;;15.10;51.70;;;;;;4940345;29;20083;-83
2023/04/12 10:20:21;;;;;;;3.83;1.58;;;15.20;51.10;;;;;;4939626;29;20031;-83
2023/04/12 10:22:51;;;;;;;3.47;1.33;;;15.20;51.40;;;;;;4940428;29;20111;-83
2023/04/12 10:25:21;;;;;;;3.58;1.10;;;15.30;49.90;;;;;;4923036;29;20101;-82
2023/04/12 10:27:47;;;;;;;3.53;1.00;;;15.30;50.50;;;;;;4923508;29;20031;-82
2023/04/12 10:30:23;;;;;;;4.93;1.17;;;14.80;51.00;;;;;;4923250;29;20123;-85
2023/04/12 10:33:01;;;;;;;2.67;1.00;;;14.90;51.80;;;;;;4939795;29;20035;-66
2023/04/12 10:35:27;;;;;;;2.10;1.08;;;15.20;51.20;;;;;;4939472;29;20127;-66
2023/04/12 10:38:04;;;;;;;3.50;0.90;;;15.60;51.00;;;;;;4939063;29;20453;-66
2023/04/12 10:40:31;;;;;;;7.35;1.20;;;15.80;51.40;;;;;;4939544;29;20101;-66
2023/04/12 10:43:22;;;;;;;5.78;1.20;;;15.90;50.10;;;;;;4939321;29;20039;-66
2023/04/12 10:45:48;;;;;;;3.72;1.48;;;15.60;51.10;;;;;;4940023;29;20032;-83
2023/04/12 10:48:37;;;;;;;4.60;1.35;;;15.60;50.80;;;;;;4939423;29;20032;-80
2023/04/12 10:51:23;;;;;;;4.75;1.17;;;15.60;51.30;;;;;;4922285;29;20513;-80
2023/04/12 10:53:50;;;;;;;2.25;1.08;;;16.10;51.40;;;;;;4922762;29;20028;-80
2023/04/12 10:56:31;;;;;;;2.88;0.70;;;15.50;50.90;;;;;;4922930;29;20349;-80
2023/04/12 10:58:59;;;;;;;3.38;1.00;;;15.60;50.50;;;;;;4937867;29;20494;-80
2023/04/12 11:01:25;;;;;;;4.97;0.90;;;16.00;49.60;;;;;;4922103;29;20059;-80
2023/04/12 11:04:11;;;;;;;7.72;0.80;;;15.90;50.20;;;;;;4939032;29;20034;-80
2023/04/12 11:06:52;;;;;;;3.85;0.80;;;16.00;50.00;;;;;;4922079;29;20027;-80
2023/04/12 11:09:33;;;;;;;11.85;1.17;;;16.30;50.40;;;;;;4937644;29;20066;-62
2023/04/12 11:12:05;;;;;;;2.05;1.08;;;16.10;50.60;;;;;;4938813;29;20044;-62
2023/04/12 11:14:45;;;;;;;2.10;0.85;;;16.50;51.70;;;;;;4938506;29;20463;-63
2023/04/12 11:17:17;;;;;;;4.07;1.30;;;16.80;49.50;;;;;;4939171;29;20100;-63
2023/04/12 11:19:43;;;;;;;1.92;1.42;;;17.60;49.00;;;;;;4938634;29;20031;-63
2023/04/12 11:22:14;;;;;;;5.20;1.05;;;18.00;48.00;;;;;;4938946;29;20036;-62
2023/04/12 11:24:46;;;;;;;2.55;0.98;;;18.40;47.20;;;;;;4938527;29;20032;-63
2023/04/12 11:27:11;;;;;;;8.68;1.42;;;18.90;45.70;;;;;;4938694;29;20083;-63
2023/04/12 11:29:37;;;;;;;3.13;0.95;;;19.50;44.60;;;;;;4938930;29;20028;-63
2023/04/12 11:32:04;;;;;;;3.47;0.82;;;18.80;45.40;;;;;;4938419;29;20043;-63
2023/04/12 11:34:34;;;;;;;4.65;1.15;;;19.50;45.80;;;;;;4938574;29;20031;-63
2023/04/12 11:37:03;;;;;;;4.43;1.35;;;19.70;42.40;;;;;;4938733;29;20032;-63
2023/04/12 11:39:29;;;;;;;5.22;1.02;;;20.20;42.10;;;;;;4938488;29;20042;-63
2023/04/12 11:41:55;;;;;;;4.63;0.90;;;20.40;41.50;;;;;;4938642;29;20039;-63
2023/04/12 11:44:22;;;;;;;2.55;1.05;;;21.30;40.90;;;;;;4938401;29;20032;-63
2023/04/12 11:46:48;;;;;;;6.70;1.20;;;21.50;40.00;;;;;;4938461;29;20576;-63
2023/04/12 11:49:18;;;;;;;2.28;1.17;;;22.00;39.40;;;;;;4938343;29;20031;-63
2023/04/12 11:51:47;;;;;;;2.75;0.82;;;22.40;38.10;;;;;;4938554;29;20498;-63
2023/04/12 11:54:13;;;;;;;3.03;0.95;;;20.60;38.70;;;;;;4938293;29;20135;-63
2023/04/12 11:56:40;;;;;;;1.20;0.80;;;20.10;40.00;;;;;;4938657;29;20170;-63
2023/04/12 11:59:06;;;;;;;3.78;1.63;;;20.50;40.30;;;;;;4920859;29;20503;-63
2023/04/12 12:01:34;;;;;;;3.53;0.82;;;21.00;39.30;;;;;;4937864;29;20130;-63
2023/04/12 12:04:00;;;;;;;3.70;1.10;;;19.20;40.50;;;;;;4938214;29;20028;-63
2023/04/12 12:06:26;;;;;;;5.05;1.17;;;19.60;40.70;;;;;;4938017;29;20068;-63
2023/04/12 12:08:53;;;;;;;3.40;1.67;;;19.20;40.80;;;;;;4920959;29;20035;-63
2023/04/12 12:11:22;;;;;;;4.25;1.58;;;19.70;40.60;;;;;;4938613;29;20471;-63
2023/04/12 12:13:50;;;;;;;3.22;1.20;;;20.00;40.00;;;;;;4937894;29;20031;-63
2023/04/12 12:16:17;;;;;;;2.03;0.85;;;19.60;39.80;;;;;;4937554;29;20034;-63
2023/04/12 12:18:47;;;;;;;1.85;0.90;;;19.20;40.30;;;;;;4937934;29;20074;-64
2023/04/12 12:21:14;;;;;;;2.80;0.80;;;18.10;41.90;;;;;;4937808;29;20106;-78
2023/04/12 12:23:44;;;;;;;2.47;0.90;;;17.30;43.10;;;;;;4920737;29;20059;-75
2023/04/12 12:26:22;;;;;;;4.47;0.85;;;17.40;43.70;;;;;;4937040;29;20110;-79
2023/04/12 12:28:55;;;;;;;2.70;0.90;;;17.60;43.70;;;;;;4920681;29;20059;-79
2023/04/12 12:31:23;;;;;;;3.38;1.00;;;17.40;42.90;;;;;;4937953;29;20036;-79
2023/04/12 12:33:53;;;;;;;3.67;0.82;;;17.00;44.10;;;;;;4920586;29;20031;-79
2023/04/12 12:36:21;;;;;;;3.58;0.82;;;16.90;44.40;;;;;;4920614;29;20490;-79
2023/04/12 12:38:51;;;;;;;4.10;1.17;;;16.50;45.10;;;;;;4937767;29;20031;-79
2023/04/12 12:41:19;;;;;;;6.90;0.93;;;16.70;45.90;;;;;;4920070;29;20122;-79
2023/04/12 12:43:49;;;;;;;2.65;1.23;;;17.10;45.20;;;;;;4920361;29;20091;-79
2023/04/12 12:46:16;;;;;;;3.40;0.73;;;17.00;43.80;;;;;;4920569;29;20399;-79
2023/04/12 12:48:46;;;;;;;3.33;0.90;;;16.50;44.50;;;;;;4920161;29;20109;-79
2023/04/12 12:51:16;;;;;;;2.25;0.77;;;16.60;45.20;;;;;;4937238;29;20031;-79
2023/04/12 12:53:42;;;;;;;2.20;1.13;;;16.90;45.00;;;;;;4920577;29;20047;-79
2023/04/12 12:56:11;;;;;;;2.30;0.90;;;16.50;45.10;;;;;;4936925;29;20050;-79
2023/04/12 12:58:37;;;;;;;2.75;1.00;;;16.60;44.90;;;;;;4919814;29;20031;-78
2023/04/12 13:01:06;;;;;;;4.45;1.30;;;16.50;45.20;;;;;;4936649;29;20122;-79
2023/04/12 13:03:32;;;;;;;3.78;1.00;;;16.30;45.70;;;;;;4920171;29;20032;-80